GAP2834 RPLC-RPVM
Flight info
| Callsign | GAP2834 |
|---|---|
| Flight time | N/A |
| Altitude | 25000 |
| Route | OLIVA3F OLIVA W16 MIA B462 IPATA W25 BATAY BATAY3P |
| Aircraft | DH8D/M-SDE2E3FGRY/H |
Departure
| Time | 2026-05-06 14:26 |
|---|---|
| Airport | Clark International Airport / Clark Air Base (RPLC) |
Arrival
| Time | N/A |
|---|---|
| Airport | Mactan Cebu International Airport (RPVM) |
| Time | Latitude | Longitude | Altitude | Speed | Heading |
|---|---|---|---|---|---|
| 2026-05-06 13:58 | 15.19382 | 120.55956 | 488 ft | 0 kts | 290° |
| 2026-05-06 14:20 | 15.19378 | 120.55949 | 488 ft | 2 kts | 201° |
| 2026-05-06 14:20 | 15.19371 | 120.55968 | 488 ft | 4 kts | 91° |
| 2026-05-06 14:20 | 15.19363 | 120.56010 | 488 ft | 6 kts | 96° |
| 2026-05-06 14:21 | 15.19402 | 120.56045 | 488 ft | 7 kts | 21° |
| 2026-05-06 14:21 | 15.19458 | 120.56071 | 488 ft | 10 kts | 38° |
| 2026-05-06 14:21 | 15.19459 | 120.56142 | 488 ft | 10 kts | 112° |
| 2026-05-06 14:21 | 15.19435 | 120.56207 | 488 ft | 11 kts | 111° |
| 2026-05-06 14:22 | 15.19450 | 120.56282 | 488 ft | 12 kts | 25° |
| 2026-05-06 14:22 | 15.19524 | 120.56312 | 488 ft | 10 kts | 21° |
| 2026-05-06 14:22 | 15.19588 | 120.56336 | 488 ft | 9 kts | 20° |
| 2026-05-06 14:22 | 15.19643 | 120.56358 | 488 ft | 7 kts | 21° |
| 2026-05-06 14:23 | 15.19702 | 120.56382 | 488 ft | 13 kts | 21° |
| 2026-05-06 14:23 | 15.19818 | 120.56427 | 488 ft | 22 kts | 21° |
| 2026-05-06 14:23 | 15.19967 | 120.56486 | 488 ft | 20 kts | 21° |
| 2026-05-06 14:23 | 15.20081 | 120.56531 | 488 ft | 14 kts | 21° |
| 2026-05-06 14:24 | 15.20137 | 120.56596 | 488 ft | 11 kts | 81° |
| 2026-05-06 14:24 | 15.20151 | 120.56697 | 488 ft | 17 kts | 83° |
| 2026-05-06 14:24 | 15.20140 | 120.56810 | 488 ft | 14 kts | 121° |
| 2026-05-06 14:24 | 15.20056 | 120.56823 | 488 ft | 17 kts | 199° |
| 2026-05-06 14:25 | 15.20009 | 120.56804 | 488 ft | 2 kts | 201° |
| 2026-05-06 14:25 | 15.19965 | 120.56786 | 488 ft | 6 kts | 201° |
| 2026-05-06 14:25 | 15.19789 | 120.56716 | 488 ft | 53 kts | 200° |
| 2026-05-06 14:25 | 15.19240 | 120.56498 | 488 ft | 125 kts | 200° |
| 2026-05-06 14:26 | 15.18235 | 120.56088 | 635 ft | 174 kts | 202° |
| 2026-05-06 14:26 | 15.17040 | 120.55570 | 1162 ft | 194 kts | 202° |
| 2026-05-06 14:26 | 15.15752 | 120.55035 | 1703 ft | 208 kts | 202° |
| 2026-05-06 14:26 | 15.14364 | 120.54466 | 2254 ft | 218 kts | 202° |
| 2026-05-06 14:27 | 15.12931 | 120.53879 | 2810 ft | 228 kts | 201° |
| 2026-05-06 14:27 | 15.11399 | 120.53287 | 3372 ft | 237 kts | 195° |
| 2026-05-06 14:27 | 15.09763 | 120.53343 | 3907 ft | 241 kts | 156° |
| 2026-05-06 14:27 | 15.08514 | 120.54443 | 4465 ft | 241 kts | 122° |
| 2026-05-06 14:28 | 15.07718 | 120.55977 | 5130 ft | 240 kts | 114° |
| 2026-05-06 14:28 | 15.07045 | 120.57516 | 5832 ft | 233 kts | 112° |
| 2026-05-06 14:28 | 15.06413 | 120.59014 | 6520 ft | 226 kts | 112° |
| 2026-05-06 14:28 | 15.05791 | 120.60500 | 7180 ft | 223 kts | 111° |
| 2026-05-06 14:29 | 15.05172 | 120.61960 | 7755 ft | 223 kts | 111° |
| 2026-05-06 14:29 | 15.04537 | 120.63434 | 8246 ft | 226 kts | 111° |
| 2026-05-06 14:29 | 15.03889 | 120.64918 | 8723 ft | 229 kts | 111° |
| 2026-05-06 14:29 | 15.03161 | 120.66386 | 9202 ft | 233 kts | 123° |
| 2026-05-06 14:30 | 15.01927 | 120.67488 | 9669 ft | 239 kts | 142° |
| 2026-05-06 14:30 | 15.00498 | 120.68459 | 10028 ft | 252 kts | 143° |
| 2026-05-06 14:30 | 14.98976 | 120.69486 | 10301 ft | 268 kts | 144° |
| 2026-05-06 14:30 | 14.97353 | 120.70573 | 10637 ft | 281 kts | 144° |
| 2026-05-06 14:31 | 14.95696 | 120.71681 | 11113 ft | 287 kts | 144° |
| 2026-05-06 14:31 | 14.93994 | 120.72822 | 11595 ft | 292 kts | 144° |
| 2026-05-06 14:31 | 14.92304 | 120.73970 | 12146 ft | 293 kts | 144° |
| 2026-05-06 14:31 | 14.90590 | 120.75137 | 12725 ft | 294 kts | 145° |
| 2026-05-06 14:32 | 14.88875 | 120.76305 | 13319 ft | 295 kts | 145° |
| 2026-05-06 14:32 | 14.87164 | 120.77468 | 13948 ft | 294 kts | 145° |
| 2026-05-06 14:32 | 14.85459 | 120.78627 | 14578 ft | 294 kts | 145° |
| 2026-05-06 14:32 | 14.83754 | 120.79785 | 15196 ft | 295 kts | 145° |
| 2026-05-06 14:33 | 14.82042 | 120.80948 | 15818 ft | 296 kts | 145° |
| 2026-05-06 14:33 | 14.80318 | 120.82118 | 16440 ft | 297 kts | 145° |
| 2026-05-06 14:33 | 14.78570 | 120.83305 | 17066 ft | 298 kts | 145° |
| 2026-05-06 14:33 | 14.76845 | 120.84475 | 17685 ft | 300 kts | 145° |
| 2026-05-06 14:34 | 14.75057 | 120.85688 | 18317 ft | 303 kts | 145° |
| 2026-05-06 14:34 | 14.73233 | 120.86925 | 18931 ft | 307 kts | 145° |
| 2026-05-06 14:34 | 14.71432 | 120.88147 | 19522 ft | 311 kts | 145° |
| 2026-05-06 14:34 | 14.69618 | 120.89377 | 20100 ft | 315 kts | 145° |
| 2026-05-06 14:35 | 14.67748 | 120.90644 | 20700 ft | 319 kts | 145° |
| 2026-05-06 14:35 | 14.65901 | 120.91894 | 21282 ft | 323 kts | 145° |
| 2026-05-06 14:35 | 14.63992 | 120.93188 | 21883 ft | 327 kts | 146° |
| 2026-05-06 14:35 | 14.62088 | 120.94479 | 22476 ft | 331 kts | 146° |
| 2026-05-06 14:36 | 14.60164 | 120.95781 | 23085 ft | 334 kts | 146° |
| 2026-05-06 14:36 | 14.58186 | 120.97120 | 23707 ft | 338 kts | 146° |
| 2026-05-06 14:36 | 14.56221 | 120.98450 | 24319 ft | 341 kts | 146° |
| 2026-05-06 14:36 | 14.54883 | 120.99355 | 24725 ft | 343 kts | 146° |
| 2026-05-06 14:37 | 14.53546 | 121.00260 | 24874 ft | 349 kts | 146° |
| 2026-05-06 14:37 | 14.50308 | 121.02710 | 24931 ft | 340 kts | 133° |